sensor_id;sensor_type;location;lat;lon;timestamp;pressure;altitude;pressure_sealevel;temperature;humidity
71601;BME280;59446;52.192;4.628;2022-07-29T00:00:26;101897.59;;;23.29;45.88
71601;BME280;59446;52.192;4.628;2022-07-29T00:02:51;101893.13;;;23.30;45.72
71601;BME280;59446;52.192;4.628;2022-07-29T00:05:17;101890.59;;;23.28;45.71
71601;BME280;59446;52.192;4.628;2022-07-29T00:07:43;101895.03;;;23.28;45.75
71601;BME280;59446;52.192;4.628;2022-07-29T00:10:08;101887.06;;;23.28;45.71
71601;BME280;59446;52.192;4.628;2022-07-29T00:12:33;101885.38;;;23.27;45.87
71601;BME280;59446;52.192;4.628;2022-07-29T00:14:59;101885.38;;;23.27;45.69
71601;BME280;59446;52.192;4.628;2022-07-29T00:17:24;101878.34;;;23.26;45.78
71601;BME280;59446;52.192;4.628;2022-07-29T00:19:50;101875.78;;;23.24;45.76
71601;BME280;59446;52.192;4.628;2022-07-29T00:22:15;101878.44;;;23.24;45.82
71601;BME280;59446;52.192;4.628;2022-07-29T00:24:41;101873.13;;;23.24;45.77
71601;BME280;59446;52.192;4.628;2022-07-29T00:27:06;101875.78;;;23.24;46.00
71601;BME280;59446;52.192;4.628;2022-07-29T00:29:31;101867.91;;;23.23;45.89
71601;BME280;59446;52.192;4.628;2022-07-29T00:31:57;101874.94;;;23.24;45.97
71601;BME280;59446;52.192;4.628;2022-07-29T00:34:22;101871.53;;;23.22;45.88
71601;BME280;59446;52.192;4.628;2022-07-29T00:37:06;101876.00;;;23.21;45.92
71601;BME280;59446;52.192;4.628;2022-07-29T00:39:31;101869.84;;;23.21;46.08
71601;BME280;59446;52.192;4.628;2022-07-29T00:41:57;101866.31;;;23.20;45.85
71601;BME280;59446;52.192;4.628;2022-07-29T00:44:22;101861.97;;;23.19;45.61
71601;BME280;59446;52.192;4.628;2022-07-29T00:46:47;101865.47;;;23.20;45.93
71601;BME280;59446;52.192;4.628;2022-07-29T00:49:13;101860.16;;;23.20;45.78
71601;BME280;59446;52.192;4.628;2022-07-29T00:51:38;101863.75;;;23.19;45.66
71601;BME280;59446;52.192;4.628;2022-07-29T00:54:04;101860.25;;;23.18;45.95
71601;BME280;59446;52.192;4.628;2022-07-29T00:56:31;101856.75;;;23.18;46.14
71601;BME280;59446;52.192;4.628;2022-07-29T00:58:58;101862.06;;;23.18;46.19
71601;BME280;59446;52.192;4.628;2022-07-29T01:01:24;101855.03;;;23.17;45.88
71601;BME280;59446;52.192;4.628;2022-07-29T01:03:49;101852.50;;;23.15;46.03
71601;BME280;59446;52.192;4.628;2022-07-29T01:06:18;101857.81;;;23.15;46.17
71601;BME280;59446;52.192;4.628;2022-07-29T01:08:46;101852.59;;;23.14;46.26
71601;BME280;59446;52.192;4.628;2022-07-29T01:11:12;101853.44;;;23.14;46.07
71601;BME280;59446;52.192;4.628;2022-07-29T01:13:39;101856.09;;;23.14;45.81
71601;BME280;59446;52.192;4.628;2022-07-29T01:16:14;101851.75;;;23.13;45.99
71601;BME280;59446;52.192;4.628;2022-07-29T01:18:44;101850.97;;;23.11;46.02
71601;BME280;59446;52.192;4.628;2022-07-29T01:21:54;101851.81;;;23.12;46.29
71601;BME280;59446;52.192;4.628;2022-07-29T01:24:38;101850.97;;;23.11;46.12
71601;BME280;59446;52.192;4.628;2022-07-29T01:27:38;101843.09;;;23.10;46.09
71601;BME280;59446;52.192;4.628;2022-07-29T01:30:06;101843.94;;;23.10;46.48
71601;BME280;59446;52.192;4.628;2022-07-29T01:32:36;101842.22;;;23.09;46.32
71601;BME280;59446;52.192;4.628;2022-07-29T01:35:06;101844.03;;;23.09;46.28
71601;BME280;59446;52.192;4.628;2022-07-29T01:37:46;101837.88;;;23.08;46.28
71601;BME280;59446;52.192;4.628;2022-07-29T01:40:22;101841.59;;;23.06;46.38
71601;BME280;59446;52.192;4.628;2022-07-29T01:42:51;101842.44;;;23.06;46.11
71601;BME280;59446;52.192;4.628;2022-07-29T01:45:24;101833.63;;;23.06;46.44
71601;BME280;59446;52.192;4.628;2022-07-29T01:50:28;101839.03;;;23.04;46.32
71601;BME280;59446;52.192;4.628;2022-07-29T01:52:58;101832.00;;;23.03;45.95
71601;BME280;59446;52.192;4.628;2022-07-29T01:55:28;101831.16;;;23.02;46.51
71601;BME280;59446;52.192;4.628;2022-07-29T01:57:56;101829.34;;;23.03;46.36
71601;BME280;59446;52.192;4.628;2022-07-29T02:00:23;101825.00;;;23.02;46.30
71601;BME280;59446;52.192;4.628;2022-07-29T02:02:50;101830.31;;;23.02;46.55
71601;BME280;59446;52.192;4.628;2022-07-29T02:05:18;101820.63;;;23.01;46.41
71601;BME280;59446;52.192;4.628;2022-07-29T02:07:46;101818.94;;;23.00;46.42
71601;BME280;59446;52.192;4.628;2022-07-29T02:10:14;101816.28;;;23.00;46.15
71601;BME280;59446;52.192;4.628;2022-07-29T02:12:43;101814.56;;;22.99;46.48
71601;BME280;59446;52.192;4.628;2022-07-29T02:15:10;101812.84;;;22.98;46.31
71601;BME280;59446;52.192;4.628;2022-07-29T02:17:49;101812.84;;;22.98;46.65
71601;BME280;59446;52.192;4.628;2022-07-29T02:20:16;101814.66;;;22.97;46.50
71601;BME280;59446;52.192;4.628;2022-07-29T02:22:44;101814.66;;;22.97;46.45
71601;BME280;59446;52.192;4.628;2022-07-29T02:25:10;101804.13;;;22.96;46.53
71601;BME280;59446;52.192;4.628;2022-07-29T02:27:37;101812.09;;;22.96;46.52
71601;BME280;59446;52.192;4.628;2022-07-29T02:30:05;101807.72;;;22.95;46.63
71601;BME280;59446;52.192;4.628;2022-07-29T02:32:31;101810.38;;;22.95;46.29
71601;BME280;59446;52.192;4.628;2022-07-29T02:35:00;101806.03;;;22.94;46.77
71601;BME280;59446;52.192;4.628;2022-07-29T02:37:27;101806.03;;;22.94;46.60
71601;BME280;59446;52.192;4.628;2022-07-29T02:39:54;101801.66;;;22.93;46.48
71601;BME280;59446;52.192;4.628;2022-07-29T02:42:22;101806.13;;;22.92;46.63
71601;BME280;59446;52.192;4.628;2022-07-29T02:44:49;101808.78;;;22.92;46.67
71601;BME280;59446;52.192;4.628;2022-07-29T02:47:22;101805.28;;;22.92;46.43
71601;BME280;59446;52.192;4.628;2022-07-29T02:49:57;101805.28;;;22.92;46.39
71601;BME280;59446;52.192;4.628;2022-07-29T02:54:56;101808.03;;;22.90;46.88
71601;BME280;59446;52.192;4.628;2022-07-29T03:00:17;101812.50;;;22.90;46.64
71601;BME280;59446;52.192;4.628;2022-07-29T03:02:45;101805.44;;;22.89;46.59
71601;BME280;59446;52.192;4.628;2022-07-29T03:05:17;101795.78;;;22.88;46.71
71601;BME280;59446;52.192;4.628;2022-07-29T03:07:46;101801.94;;;22.88;46.63
71601;BME280;59446;52.192;4.628;2022-07-29T03:10:12;101808.22;;;22.87;46.67
71601;BME280;59446;52.192;4.628;2022-07-29T03:12:39;101801.19;;;22.86;46.64
71601;BME280;59446;52.192;4.628;2022-07-29T03:15:06;101808.31;;;22.86;46.82
71601;BME280;59446;52.192;4.628;2022-07-29T03:17:32;101803.00;;;22.86;46.71
71601;BME280;59446;52.192;4.628;2022-07-29T03:19:58;101806.50;;;22.86;46.56
71601;BME280;59446;52.192;4.628;2022-07-29T03:22:25;101803.00;;;22.86;46.65
71601;BME280;59446;52.192;4.628;2022-07-29T03:24:50;101798.75;;;22.83;46.68
71601;BME280;59446;52.192;4.628;2022-07-29T03:27:16;101797.78;;;22.84;47.29
71601;BME280;59446;52.192;4.628;2022-07-29T03:29:41;101796.94;;;22.84;46.82
71601;BME280;59446;52.192;4.628;2022-07-29T03:32:07;101794.38;;;22.82;46.83
71601;BME280;59446;52.192;4.628;2022-07-29T03:34:32;101787.25;;;22.83;46.68
71601;BME280;59446;52.192;4.628;2022-07-29T03:36:57;101788.22;;;22.82;46.69
71601;BME280;59446;52.192;4.628;2022-07-29T03:39:25;101786.41;;;22.82;46.77
71601;BME280;59446;52.192;4.628;2022-07-29T03:41:55;101786.50;;;22.81;46.68
71601;BME280;59446;52.192;4.628;2022-07-29T03:44:23;101786.50;;;22.81;46.58
71601;BME280;59446;52.192;4.628;2022-07-29T03:46:53;101781.31;;;22.79;46.94
71601;BME280;59446;52.192;4.628;2022-07-29T03:49:21;101789.28;;;22.79;46.79
71601;BME280;59446;52.192;4.628;2022-07-29T03:51:47;101790.13;;;22.80;46.93
71601;BME280;59446;52.192;4.628;2022-07-29T03:54:12;101777.78;;;22.79;46.80
71601;BME280;59446;52.192;4.628;2022-07-29T03:56:42;101786.63;;;22.79;46.77
71601;BME280;59446;52.192;4.628;2022-07-29T03:59:11;101786.63;;;22.79;46.92
71601;BME280;59446;52.192;4.628;2022-07-29T04:01:38;101794.69;;;22.78;47.01
71601;BME280;59446;52.192;4.628;2022-07-29T04:04:04;101800.00;;;22.78;46.92
71601;BME280;59446;52.192;4.628;2022-07-29T04:06:38;101792.13;;;22.76;46.86
71601;BME280;59446;52.192;4.628;2022-07-29T04:09:03;101786.91;;;22.74;47.03
71601;BME280;59446;52.192;4.628;2022-07-29T04:11:29;101785.97;;;22.76;47.02
71601;BME280;59446;52.192;4.628;2022-07-29T04:13:54;101796.59;;;22.76;46.64
71601;BME280;59446;52.192;4.628;2022-07-29T04:16:19;101793.19;;;22.73;46.89
71601;BME280;59446;52.192;4.628;2022-07-29T04:18:45;101787.88;;;22.73;46.78
71601;BME280;59446;52.192;4.628;2022-07-29T04:21:10;101796.69;;;22.74;46.96
71601;BME280;59446;52.192;4.628;2022-07-29T04:23:35;101798.50;;;22.73;46.89
71601;BME280;59446;52.192;4.628;2022-07-29T04:26:01;101791.47;;;22.72;47.02
71601;BME280;59446;52.192;4.628;2022-07-29T04:28:26;101792.34;;;22.73;46.99
71601;BME280;59446;52.192;4.628;2022-07-29T04:30:52;101796.78;;;22.72;47.25
71601;BME280;59446;52.192;4.628;2022-07-29T04:33:17;101791.47;;;22.72;46.87
71601;BME280;59446;52.192;4.628;2022-07-29T04:35:42;101802.09;;;22.72;46.99
71601;BME280;59446;52.192;4.628;2022-07-29T04:38:08;101794.13;;;22.72;47.16
71601;BME280;59446;52.192;4.628;2022-07-29T04:40:33;101800.41;;;22.71;46.96
71601;BME280;59446;52.192;4.628;2022-07-29T04:43:00;101797.75;;;22.71;46.98
71601;BME280;59446;52.192;4.628;2022-07-29T04:45:26;101797.63;;;22.73;46.65
71601;BME280;59446;52.192;4.628;2022-07-29T04:47:51;101789.78;;;22.71;47.00
71601;BME280;59446;52.192;4.628;2022-07-29T04:50:16;101788.81;;;22.72;46.99
71601;BME280;59446;52.192;4.628;2022-07-29T04:52:42;101792.44;;;22.71;46.97
71601;BME280;59446;52.192;4.628;2022-07-29T04:55:08;101788.06;;;22.70;47.00
71601;BME280;59446;52.192;4.628;2022-07-29T04:57:33;101783.59;;;22.71;47.04
71601;BME280;59446;52.192;4.628;2022-07-29T04:59:58;101786.25;;;22.71;46.85
71601;BME280;59446;52.192;4.628;2022-07-29T05:02:24;101780.09;;;22.70;47.13
71601;BME280;59446;52.192;4.628;2022-07-29T05:04:49;101781.91;;;22.70;47.00
71601;BME280;59446;52.192;4.628;2022-07-29T05:07:15;101788.06;;;22.70;46.89
71601;BME280;59446;52.192;4.628;2022-07-29T05:09:40;101791.69;;;22.69;46.97
71601;BME280;59446;52.192;4.628;2022-07-29T05:12:07;101790.81;;;22.69;47.04
71601;BME280;59446;52.192;4.628;2022-07-29T05:14:32;101786.38;;;22.69;47.06
71601;BME280;59446;52.192;4.628;2022-07-29T05:16:58;101783.72;;;22.69;47.04
71601;BME280;59446;52.192;4.628;2022-07-29T05:19:24;101784.66;;;22.68;47.13
71601;BME280;59446;52.192;4.628;2022-07-29T05:21:49;101789.13;;;22.68;47.17
71601;BME280;59446;52.192;4.628;2022-07-29T05:24:15;101791.78;;;22.68;46.98
71601;BME280;59446;52.192;4.628;2022-07-29T05:26:40;101789.13;;;22.68;47.20
71601;BME280;59446;52.192;4.628;2022-07-29T05:29:05;101784.66;;;22.68;47.04
71601;BME280;59446;52.192;4.628;2022-07-29T05:31:31;101787.31;;;22.68;47.05
71601;BME280;59446;52.192;4.628;2022-07-29T05:33:56;101794.44;;;22.68;47.02
71601;BME280;59446;52.192;4.628;2022-07-29T05:36:22;101797.09;;;22.68;47.39
71601;BME280;59446;52.192;4.628;2022-07-29T05:38:47;101796.25;;;22.67;47.13
71601;BME280;59446;52.192;4.628;2022-07-29T05:41:12;101801.56;;;22.67;46.77
71601;BME280;59446;52.192;4.628;2022-07-29T05:43:38;101804.09;;;22.69;46.61
71601;BME280;59446;52.192;4.628;2022-07-29T05:46:03;101816.31;;;22.71;46.60
71601;BME280;59446;52.192;4.628;2022-07-29T05:48:29;101813.66;;;22.71;46.56
71601;BME280;59446;52.192;4.628;2022-07-29T05:50:54;101819.75;;;22.73;46.45
71601;BME280;59446;52.192;4.628;2022-07-29T05:53:20;101813.38;;;22.76;46.51
71601;BME280;59446;52.192;4.628;2022-07-29T05:55:45;101814.44;;;22.73;46.72
71601;BME280;59446;52.192;4.628;2022-07-29T05:58:11;101819.75;;;22.73;46.72
71601;BME280;59446;52.192;4.628;2022-07-29T06:00:36;101818.78;;;22.74;46.65
71601;BME280;59446;52.192;4.628;2022-07-29T06:03:01;101814.31;;;22.75;46.74
71601;BME280;59446;52.192;4.628;2022-07-29T06:05:27;101817.84;;;22.76;46.71
71601;BME280;59446;52.192;4.628;2022-07-29T06:07:52;101808.91;;;22.77;46.68
71601;BME280;59446;52.192;4.628;2022-07-29T06:10:18;101804.34;;;22.79;46.43
71601;BME280;59446;52.192;4.628;2022-07-29T06:12:44;101810.50;;;22.79;46.63
71601;BME280;59446;52.192;4.628;2022-07-29T06:15:09;101807.84;;;22.79;46.59
71601;BME280;59446;52.192;4.628;2022-07-29T06:17:35;101807.75;;;22.81;46.46
71601;BME280;59446;52.192;4.628;2022-07-29T06:20:01;101810.41;;;22.81;46.17
71601;BME280;59446;52.192;4.628;2022-07-29T06:22:26;101815.63;;;22.82;46.54
71601;BME280;59446;52.192;4.628;2022-07-29T06:24:51;101809.47;;;22.82;46.54
71601;BME280;59446;52.192;4.628;2022-07-29T06:27:17;101813.81;;;22.83;46.61
71601;BME280;59446;52.192;4.628;2022-07-29T06:29:42;101811.06;;;22.84;46.58
71601;BME280;59446;52.192;4.628;2022-07-29T06:32:07;101817.22;;;22.85;46.59
71601;BME280;59446;52.192;4.628;2022-07-29T06:34:35;101819.88;;;22.85;46.61
71601;BME280;59446;52.192;4.628;2022-07-29T06:37:00;101818.06;;;22.85;46.92
71601;BME280;59446;52.192;4.628;2022-07-29T06:39:27;101816.28;;;22.86;46.67
71601;BME280;59446;52.192;4.628;2022-07-29T06:41:53;101824.25;;;22.86;46.49
71601;BME280;59446;52.192;4.628;2022-07-29T06:44:19;101827.75;;;22.86;46.52
71601;BME280;59446;52.192;4.628;2022-07-29T06:46:44;101828.59;;;22.87;46.65
71601;BME280;59446;52.192;4.628;2022-07-29T06:49:09;101826.81;;;22.87;46.49
71601;BME280;59446;52.192;4.628;2022-07-29T06:51:35;101825.84;;;22.88;46.79
71601;BME280;59446;52.192;4.628;2022-07-29T06:54:01;101825.84;;;22.88;46.36
71601;BME280;59446;52.192;4.628;2022-07-29T06:56:27;101830.22;;;22.89;46.48
71601;BME280;59446;52.192;4.628;2022-07-29T06:58:52;101830.22;;;22.89;46.40
71601;BME280;59446;52.192;4.628;2022-07-29T07:01:17;101839.91;;;22.90;46.66
71601;BME280;59446;52.192;4.628;2022-07-29T07:03:43;101831.84;;;22.92;46.34
71601;BME280;59446;52.192;4.628;2022-07-29T07:06:08;101838.22;;;22.75;46.56
71601;BME280;59446;52.192;4.628;2022-07-29T07:08:34;101837.63;;;22.84;46.44
71601;BME280;59446;52.192;4.628;2022-07-29T07:10:59;101836.47;;;22.88;46.17
71601;BME280;59446;52.192;4.628;2022-07-29T07:13:25;101841.72;;;22.90;46.19
71601;BME280;59446;52.192;4.628;2022-07-29T07:15:51;101853.19;;;22.90;46.18
71601;BME280;59446;52.192;4.628;2022-07-29T07:18:17;101848.72;;;22.91;45.95
71601;BME280;59446;52.192;4.628;2022-07-29T07:20:44;101851.28;;;22.92;46.13
71601;BME280;59446;52.192;4.628;2022-07-29T07:23:09;101849.59;;;22.91;46.12
71601;BME280;59446;52.192;4.628;2022-07-29T07:25:35;101848.63;;;22.92;46.05
71601;BME280;59446;52.192;4.628;2022-07-29T07:28:00;101852.13;;;22.93;45.94
71601;BME280;59446;52.192;4.628;2022-07-29T07:30:26;101851.28;;;22.92;46.26
71601;BME280;59446;52.192;4.628;2022-07-29T07:32:52;101848.53;;;22.94;46.13
71601;BME280;59446;52.192;4.628;2022-07-29T07:35:17;101851.28;;;22.92;46.25
71601;BME280;59446;52.192;4.628;2022-07-29T07:37:43;101847.69;;;22.93;46.40
71601;BME280;59446;52.192;4.628;2022-07-29T07:40:10;101849.47;;;22.93;46.25
71601;BME280;59446;52.192;4.628;2022-07-29T07:42:40;101844.16;;;22.93;46.25
71601;BME280;59446;52.192;4.628;2022-07-29T07:45:06;101853.00;;;22.93;46.37
71601;BME280;59446;52.192;4.628;2022-07-29T07:47:32;101846.81;;;22.93;46.47
71601;BME280;59446;52.192;4.628;2022-07-29T07:49:57;101846.81;;;22.93;46.42
71601;BME280;59446;52.192;4.628;2022-07-29T07:52:23;101846.81;;;22.93;46.78
71601;BME280;59446;52.192;4.628;2022-07-29T07:54:49;101858.31;;;22.93;46.59
71601;BME280;59446;52.192;4.628;2022-07-29T07:57:14;101861.81;;;22.94;46.76
71601;BME280;59446;52.192;4.628;2022-07-29T07:59:40;101860.09;;;22.93;46.83
71601;BME280;59446;52.192;4.628;2022-07-29T08:02:07;101853.94;;;22.92;46.66
71601;BME280;59446;52.192;4.628;2022-07-29T08:04:33;101854.78;;;22.93;46.86
71601;BME280;59446;52.192;4.628;2022-07-29T08:06:59;101846.81;;;22.93;46.64
71601;BME280;59446;52.192;4.628;2022-07-29T08:09:26;101848.53;;;22.94;46.76
71601;BME280;59446;52.192;4.628;2022-07-29T08:11:52;101842.25;;;22.95;46.74
71601;BME280;59446;52.192;4.628;2022-07-29T08:14:18;101851.84;;;22.97;46.61
71601;BME280;59446;52.192;4.628;2022-07-29T08:16:44;101843.88;;;22.97;46.73
71601;BME280;59446;52.192;4.628;2022-07-29T08:19:10;101848.06;;;23.01;46.91
71601;BME280;59446;52.192;4.628;2022-07-29T08:21:35;101854.13;;;23.03;46.68
71601;BME280;59446;52.192;4.628;2022-07-29T08:24:01;101848.59;;;23.07;46.86
71601;BME280;59446;52.192;4.628;2022-07-29T08:26:45;101855.63;;;23.08;46.72
71601;BME280;59446;52.192;4.628;2022-07-29T08:29:11;101849.34;;;23.09;46.95
71601;BME280;59446;52.192;4.628;2022-07-29T08:31:37;101850.22;;;23.09;46.82
71601;BME280;59446;52.192;4.628;2022-07-29T08:34:03;101845.66;;;23.11;46.91
71601;BME280;59446;52.192;4.628;2022-07-29T08:36:29;101852.69;;;23.12;46.87
71601;BME280;59446;52.192;4.628;2022-07-29T08:38:55;101841.19;;;23.12;46.79
71601;BME280;59446;52.192;4.628;2022-07-29T08:41:20;101844.63;;;23.14;46.71
71601;BME280;59446;52.192;4.628;2022-07-29T08:43:47;101841.09;;;23.13;47.08
71601;BME280;59446;52.192;4.628;2022-07-29T08:46:13;101848.97;;;23.15;47.32
71601;BME280;59446;52.192;4.628;2022-07-29T08:48:40;101841.00;;;23.15;47.24
71601;BME280;59446;52.192;4.628;2022-07-29T08:51:07;101849.72;;;23.17;47.23
71601;BME280;59446;52.192;4.628;2022-07-29T08:53:33;101848.78;;;23.18;47.24
71601;BME280;59446;52.192;4.628;2022-07-29T08:55:59;101853.13;;;23.19;47.11
71601;BME280;59446;52.192;4.628;2022-07-29T08:58:25;101857.41;;;23.21;47.20
71601;BME280;59446;52.192;4.628;2022-07-29T09:00:55;101858.88;;;23.25;47.10
71601;BME280;59446;52.192;4.628;2022-07-29T09:03:24;101856.97;;;23.27;47.31
71601;BME280;59446;52.192;4.628;2022-07-29T09:05:50;101856.03;;;23.28;47.37
71601;BME280;59446;52.192;4.628;2022-07-29T09:08:17;101854.00;;;23.32;47.02
71601;BME280;59446;52.192;4.628;2022-07-29T09:10:43;101850.41;;;23.33;47.43
71601;BME280;59446;52.192;4.628;2022-07-29T09:13:08;101850.31;;;23.34;47.15
71601;BME280;59446;52.192;4.628;2022-07-29T09:15:34;101852.97;;;23.34;47.35
71601;BME280;59446;52.192;4.628;2022-07-29T09:17:59;101850.31;;;23.34;47.54
71601;BME280;59446;52.192;4.628;2022-07-29T09:20:26;101852.97;;;23.34;47.42
71601;BME280;59446;52.192;4.628;2022-07-29T09:23:11;101847.75;;;23.33;47.15
71601;BME280;59446;52.192;4.628;2022-07-29T09:25:39;101846.72;;;23.36;47.86
71601;BME280;59446;52.192;4.628;2022-07-29T09:28:14;101847.47;;;23.38;47.52
71601;BME280;59446;52.192;4.628;2022-07-29T09:30:58;101845.66;;;23.38;47.55
71601;BME280;59446;52.192;4.628;2022-07-29T09:33:31;101838.44;;;23.40;47.46
71601;BME280;59446;52.192;4.628;2022-07-29T09:36:00;101842.78;;;23.41;47.70
71601;BME280;59446;52.192;4.628;2022-07-29T09:38:27;101843.53;;;23.43;47.50
71601;BME280;59446;52.192;4.628;2022-07-29T09:40:57;101842.59;;;23.44;47.74
71601;BME280;59446;52.192;4.628;2022-07-29T09:43:23;101838.97;;;23.45;47.16
71601;BME280;59446;52.192;4.628;2022-07-29T09:45:48;101841.53;;;23.47;47.29
71601;BME280;59446;52.192;4.628;2022-07-29T09:48:22;101838.88;;;23.47;47.04
71601;BME280;59446;52.192;4.628;2022-07-29T09:50:48;101849.50;;;23.47;46.98
71601;BME280;59446;52.192;4.628;2022-07-29T09:53:37;101847.69;;;23.47;46.61
71601;BME280;59446;52.192;4.628;2022-07-29T09:56:06;101846.72;;;23.48;46.35
71601;BME280;59446;52.192;4.628;2022-07-29T09:58:31;101841.41;;;23.48;46.38
71601;BME280;59446;52.192;4.628;2022-07-29T10:01:01;101842.38;;;23.47;46.55
71601;BME280;59446;52.192;4.628;2022-07-29T10:03:26;101843.00;;;23.51;46.02
71601;BME280;59446;52.192;4.628;2022-07-29T10:06:11;101855.34;;;23.52;46.30
71601;BME280;59446;52.192;4.628;2022-07-29T10:08:38;101843.75;;;23.53;46.10
71601;BME280;59446;52.192;4.628;2022-07-29T10:11:15;101851.63;;;23.54;46.02
71601;BME280;59446;52.192;4.628;2022-07-29T10:13:44;101835.56;;;23.56;46.31
71601;BME280;59446;52.192;4.628;2022-07-29T10:16:11;101841.56;;;23.59;45.63
71601;BME280;59446;52.192;4.628;2022-07-29T10:18:43;101837.00;;;23.61;45.73
71601;BME280;59446;52.192;4.628;2022-07-29T10:21:09;101845.72;;;23.63;45.95
71601;BME280;59446;52.192;4.628;2022-07-29T10:23:35;101843.72;;;23.67;46.07
71601;BME280;59446;52.192;4.628;2022-07-29T10:26:03;101847.13;;;23.69;45.57
71601;BME280;59446;52.192;4.628;2022-07-29T10:28:32;101836.50;;;23.69;45.51
71601;BME280;59446;52.192;4.628;2022-07-29T10:31:05;101839.91;;;23.71;45.54
71601;BME280;59446;52.192;4.628;2022-07-29T10:42:17;101836.72;;;23.79;45.81
71601;BME280;59446;52.192;4.628;2022-07-29T10:44:44;101832.16;;;23.81;45.63
71601;BME280;59446;52.192;4.628;2022-07-29T10:47:26;101840.03;;;23.82;45.40
71601;BME280;59446;52.192;4.628;2022-07-29T10:49:59;101837.28;;;23.84;45.51
71601;BME280;59446;52.192;4.628;2022-07-29T10:55:36;101828.34;;;23.85;45.56
71601;BME280;59446;52.192;4.628;2022-07-29T10:58:15;101833.53;;;23.86;45.58
71601;BME280;59446;52.192;4.628;2022-07-29T11:00:41;101837.91;;;23.87;45.63
71601;BME280;59446;52.192;4.628;2022-07-29T11:03:07;101837.91;;;23.87;45.66
71601;BME280;59446;52.192;4.628;2022-07-29T11:06:02;101833.34;;;23.89;45.65
71601;BME280;59446;52.192;4.628;2022-07-29T11:08:27;101835.88;;;23.91;45.59
71601;BME280;59446;52.192;4.628;2022-07-29T11:13:47;101827.69;;;23.94;45.49
71601;BME280;59446;52.192;4.628;2022-07-29T11:16:14;101832.91;;;23.95;45.38
71601;BME280;59446;52.192;4.628;2022-07-29T11:21:44;101822.16;;;23.97;45.53
71601;BME280;59446;52.192;4.628;2022-07-29T11:24:16;101819.38;;;23.99;45.60
71601;BME280;59446;52.192;4.628;2022-07-29T11:26:42;101822.78;;;24.01;45.36
71601;BME280;59446;52.192;4.628;2022-07-29T11:29:21;101820.13;;;24.01;45.44
71601;BME280;59446;52.192;4.628;2022-07-29T11:31:51;101818.31;;;24.01;45.65
71601;BME280;59446;52.192;4.628;2022-07-29T11:34:32;101817.34;;;24.02;45.67
71601;BME280;59446;52.192;4.628;2022-07-29T11:39:33;101815.34;;;24.06;45.22
71601;BME280;59446;52.192;4.628;2022-07-29T11:45:06;101815.13;;;24.09;44.97
71601;BME280;59446;52.192;4.628;2022-07-29T11:47:46;101821.31;;;24.09;44.95
71601;BME280;59446;52.192;4.628;2022-07-29T11:50:15;101819.50;;;24.10;45.60
71601;BME280;59446;52.192;4.628;2022-07-29T11:52:44;101820.25;;;24.12;45.52
71601;BME280;59446;52.192;4.628;2022-07-29T11:55:13;101828.13;;;24.13;45.23
71601;BME280;59446;52.192;4.628;2022-07-29T11:57:50;101824.50;;;24.14;45.43
71601;BME280;59446;52.192;4.628;2022-07-29T12:00:23;101827.03;;;24.16;45.55
71601;BME280;59446;52.192;4.628;2022-07-29T12:02:49;101821.63;;;24.17;45.19
71601;BME280;59446;52.192;4.628;2022-07-29T12:05:14;101814.47;;;24.18;45.37
71601;BME280;59446;52.192;4.628;2022-07-29T12:07:40;101827.69;;;24.19;45.54
71601;BME280;59446;52.192;4.628;2022-07-29T12:10:06;101826.72;;;24.20;45.20
71601;BME280;59446;52.192;4.628;2022-07-29T12:12:33;101823.94;;;24.22;45.63
71601;BME280;59446;52.192;4.628;2022-07-29T12:15:19;101817.66;;;24.23;45.33
71601;BME280;59446;52.192;4.628;2022-07-29T12:17:49;101826.38;;;24.25;45.36
71601;BME280;59446;52.192;4.628;2022-07-29T12:20:22;101825.47;;;24.26;45.44
71601;BME280;59446;52.192;4.628;2022-07-29T12:22:48;101829.81;;;24.27;45.34
71601;BME280;59446;52.192;4.628;2022-07-29T12:25:14;101824.38;;;24.29;45.49
71601;BME280;59446;52.192;4.628;2022-07-29T12:27:43;101832.25;;;24.30;45.00
71601;BME280;59446;52.192;4.628;2022-07-29T12:30:11;101828.63;;;24.31;45.10
71601;BME280;59446;52.192;4.628;2022-07-29T12:32:40;101832.91;;;24.34;45.21
71601;BME280;59446;52.192;4.628;2022-07-29T12:35:11;101836.44;;;24.34;45.09
71601;BME280;59446;52.192;4.628;2022-07-29T12:37:39;101832.72;;;24.37;45.47
71601;BME280;59446;52.192;4.628;2022-07-29T12:40:07;101841.44;;;24.39;44.97
71601;BME280;59446;52.192;4.628;2022-07-29T12:42:33;101832.47;;;24.40;44.85
71601;BME280;59446;52.192;4.628;2022-07-29T12:44:59;101838.56;;;24.42;45.05
71601;BME280;59446;52.192;4.628;2022-07-29T12:47:25;101834.94;;;24.43;45.48
71601;BME280;59446;52.192;4.628;2022-07-29T12:49:51;101833.00;;;24.45;45.42
71601;BME280;59446;52.192;4.628;2022-07-29T12:52:33;101823.09;;;24.47;44.93
71601;BME280;59446;52.192;4.628;2022-07-29T12:54:59;101832.78;;;24.48;45.36
71601;BME280;59446;52.192;4.628;2022-07-29T12:57:26;101836.22;;;24.50;44.94
71601;BME280;59446;52.192;4.628;2022-07-29T13:00:10;101834.28;;;24.52;45.41
71601;BME280;59446;52.192;4.628;2022-07-29T13:02:37;101828.84;;;24.53;45.26
71601;BME280;59446;52.192;4.628;2022-07-29T13:05:04;101826.06;;;24.55;45.23
71601;BME280;59446;52.192;4.628;2022-07-29T13:07:32;101825.00;;;24.58;45.18
71601;BME280;59446;52.192;4.628;2022-07-29T13:10:20;101821.38;;;24.59;45.09
71601;BME280;59446;52.192;4.628;2022-07-29T13:13:08;101819.44;;;24.61;44.95
71601;BME280;59446;52.192;4.628;2022-07-29T13:15:40;101829.13;;;24.62;45.00
71601;BME280;59446;52.192;4.628;2022-07-29T13:18:26;101824.56;;;24.64;44.70
71601;BME280;59446;52.192;4.628;2022-07-29T13:20:52;101828.06;;;24.64;44.14
71601;BME280;59446;52.192;4.628;2022-07-29T13:23:17;101824.44;;;24.65;44.11
71601;BME280;59446;52.192;4.628;2022-07-29T13:25:43;101824.31;;;24.67;44.64